sensor_id;sensor_type;location;lat;lon;timestamp;pressure;altitude;pressure_sealevel;temperature;humidity
51999;BME280;73339;50.924;11.598;2024-02-21T00:02:13;100159.75;;;20.20;34.48
51999;BME280;73339;50.924;11.598;2024-02-21T00:04:43;100158.51;;;20.34;34.31
51999;BME280;73339;50.924;11.598;2024-02-21T00:07:14;100151.47;;;20.20;34.55
51999;BME280;73339;50.924;11.598;2024-02-21T00:09:44;100150.09;;;20.17;34.46
51999;BME280;73339;50.924;11.598;2024-02-21T00:12:14;100146.41;;;20.15;34.57
51999;BME280;73339;50.924;11.598;2024-02-21T00:14:45;100145.50;;;20.29;34.25
51999;BME280;73339;50.924;11.598;2024-02-21T00:17:15;100140.59;;;20.10;34.66
51999;BME280;73339;50.924;11.598;2024-02-21T00:19:46;100138.40;;;20.28;34.29
51999;BME280;73339;50.924;11.598;2024-02-21T00:22:16;100130.71;;;20.22;34.37
51999;BME280;73339;50.924;11.598;2024-02-21T00:24:47;100120.38;;;20.14;34.54
51999;BME280;73339;50.924;11.598;2024-02-21T00:27:17;100122.59;;;20.21;34.40
51999;BME280;73339;50.924;11.598;2024-02-21T00:29:48;100125.71;;;20.24;34.30
51999;BME280;73339;50.924;11.598;2024-02-21T00:32:18;100130.33;;;20.28;34.26
51999;BME280;73339;50.924;11.598;2024-02-21T00:34:48;100126.30;;;20.07;34.63
51999;BME280;73339;50.924;11.598;2024-02-21T00:37:19;100122.75;;;20.33;34.11
51999;BME280;73339;50.924;11.598;2024-02-21T00:39:50;100115.43;;;20.18;34.42
51999;BME280;73339;50.924;11.598;2024-02-21T00:42:20;100111.24;;;20.17;34.40
51999;BME280;73339;50.924;11.598;2024-02-21T00:44:50;100112.61;;;20.05;34.61
51999;BME280;73339;50.924;11.598;2024-02-21T00:47:21;100107.77;;;20.24;34.28
51999;BME280;73339;50.924;11.598;2024-02-21T00:49:51;100106.03;;;20.21;34.38
51999;BME280;73339;50.924;11.598;2024-02-21T00:52:22;100105.21;;;20.20;34.31
51999;BME280;73339;50.924;11.598;2024-02-21T00:54:52;100105.83;;;20.14;34.47
51999;BME280;73339;50.924;11.598;2024-02-21T00:57:22;100103.60;;;20.11;34.49
51999;BME280;73339;50.924;11.598;2024-02-21T00:59:53;100102.98;;;20.36;34.00
51999;BME280;73339;50.924;11.598;2024-02-21T01:02:23;100099.47;;;20.17;34.41
51999;BME280;73339;50.924;11.598;2024-02-21T01:04:54;100099.25;;;20.29;34.14
51999;BME280;73339;50.924;11.598;2024-02-21T01:07:24;100093.94;;;20.34;34.03
51999;BME280;73339;50.924;11.598;2024-02-21T01:09:55;100091.88;;;20.31;34.11
51999;BME280;73339;50.924;11.598;2024-02-21T01:12:25;100089.90;;;20.24;34.24
51999;BME280;73339;50.924;11.598;2024-02-21T01:14:56;100086.63;;;20.22;34.30
51999;BME280;73339;50.924;11.598;2024-02-21T01:17:26;100084.35;;;20.24;34.22
51999;BME280;73339;50.924;11.598;2024-02-21T01:19:56;100082.75;;;20.21;34.32
51999;BME280;73339;50.924;11.598;2024-02-21T01:22:27;100074.79;;;20.12;34.42
51999;BME280;73339;50.924;11.598;2024-02-21T01:24:57;100072.73;;;20.23;34.25
51999;BME280;73339;50.924;11.598;2024-02-21T01:27:28;100071.11;;;19.98;34.67
51999;BME280;73339;50.924;11.598;2024-02-21T01:29:58;100065.79;;;20.33;33.96
51999;BME280;73339;50.924;11.598;2024-02-21T01:32:28;100060.17;;;20.27;34.11
51999;BME280;73339;50.924;11.598;2024-02-21T01:34:59;100054.97;;;20.34;34.00
51999;BME280;73339;50.924;11.598;2024-02-21T01:37:29;100053.76;;;20.12;34.37
51999;BME280;73339;50.924;11.598;2024-02-21T01:40:00;100057.53;;;20.12;34.40
51999;BME280;73339;50.924;11.598;2024-02-21T01:42:30;100054.41;;;20.22;34.16
51999;BME280;73339;50.924;11.598;2024-02-21T01:45:01;100054.28;;;20.22;34.19
51999;BME280;73339;50.924;11.598;2024-02-21T01:47:31;100053.88;;;20.24;34.12
51999;BME280;73339;50.924;11.598;2024-02-21T01:50:03;100050.91;;;20.26;34.06
51999;BME280;73339;50.924;11.598;2024-02-21T01:52:33;100044.57;;;19.96;34.61
51999;BME280;73339;50.924;11.598;2024-02-21T01:55:03;100033.02;;;20.18;34.21
51999;BME280;73339;50.924;11.598;2024-02-21T01:57:33;100026.33;;;20.19;34.17
51999;BME280;73339;50.924;11.598;2024-02-21T02:00:05;100025.31;;;20.13;34.29
51999;BME280;73339;50.924;11.598;2024-02-21T02:02:34;100022.73;;;20.07;34.42
51999;BME280;73339;50.924;11.598;2024-02-21T02:05:05;100018.91;;;20.09;34.37
51999;BME280;73339;50.924;11.598;2024-02-21T02:07:35;100019.56;;;20.08;34.40
51999;BME280;73339;50.924;11.598;2024-02-21T02:10:06;100016.90;;;20.15;34.24
51999;BME280;73339;50.924;11.598;2024-02-21T02:12:36;100006.59;;;20.18;34.15
51999;BME280;73339;50.924;11.598;2024-02-21T02:15:07;100003.92;;;20.08;34.37
51999;BME280;73339;50.924;11.598;2024-02-21T02:17:37;99998.19;;;20.28;33.94
51999;BME280;73339;50.924;11.598;2024-02-21T02:20:07;99997.94;;;20.21;34.10
51999;BME280;73339;50.924;11.598;2024-02-21T02:22:39;99996.10;;;20.22;34.08
51999;BME280;73339;50.924;11.598;2024-02-21T02:25:08;99998.40;;;20.11;34.30
51999;BME280;73339;50.924;11.598;2024-02-21T02:27:42;99993.65;;;20.35;33.84
51999;BME280;73339;50.924;11.598;2024-02-21T02:30:10;99990.56;;;20.15;34.16
51999;BME280;73339;50.924;11.598;2024-02-21T02:32:39;99986.61;;;20.24;34.06
51999;BME280;73339;50.924;11.598;2024-02-21T02:35:09;99984.99;;;20.43;33.68
51999;BME280;73339;50.924;11.598;2024-02-21T02:37:40;99982.34;;;20.11;34.31
51999;BME280;73339;50.924;11.598;2024-02-21T02:40:11;99978.60;;;20.26;33.99
51999;BME280;73339;50.924;11.598;2024-02-21T02:42:41;99978.92;;;20.15;34.20
51999;BME280;73339;50.924;11.598;2024-02-21T02:45:11;99980.80;;;20.24;34.03
51999;BME280;73339;50.924;11.598;2024-02-21T02:47:42;99985.68;;;20.24;34.10
51999;BME280;73339;50.924;11.598;2024-02-21T02:50:12;99991.97;;;20.30;33.94
51999;BME280;73339;50.924;11.598;2024-02-21T02:52:43;99998.91;;;20.39;33.78
51999;BME280;73339;50.924;11.598;2024-02-21T02:55:13;99997.17;;;20.05;34.43
51999;BME280;73339;50.924;11.598;2024-02-21T02:57:44;99993.79;;;20.27;34.00
51999;BME280;73339;50.924;11.598;2024-02-21T03:00:15;99995.96;;;19.91;34.72
51999;BME280;73339;50.924;11.598;2024-02-21T03:02:46;99996.03;;;20.35;33.85
51999;BME280;73339;50.924;11.598;2024-02-21T03:05:16;99995.78;;;20.19;34.14
51999;BME280;73339;50.924;11.598;2024-02-21T03:07:46;99994.32;;;20.19;34.19
51999;BME280;73339;50.924;11.598;2024-02-21T03:10:16;99991.64;;;20.19;34.26
51999;BME280;73339;50.924;11.598;2024-02-21T03:12:46;99991.93;;;20.22;34.13
51999;BME280;73339;50.924;11.598;2024-02-21T03:15:17;99998.23;;;20.37;33.82
51999;BME280;73339;50.924;11.598;2024-02-21T03:17:47;99997.85;;;20.35;33.86
51999;BME280;73339;50.924;11.598;2024-02-21T03:20:18;99997.60;;;20.11;34.33
51999;BME280;73339;50.924;11.598;2024-02-21T03:22:48;99991.51;;;20.24;34.10
51999;BME280;73339;50.924;11.598;2024-02-21T03:25:18;99987.31;;;20.04;34.43
51999;BME280;73339;50.924;11.598;2024-02-21T03:27:49;99984.39;;;20.07;34.39
51999;BME280;73339;50.924;11.598;2024-02-21T03:30:20;99980.84;;;20.13;34.24
51999;BME280;73339;50.924;11.598;2024-02-21T03:32:50;99982.20;;;20.08;34.25
51999;BME280;73339;50.924;11.598;2024-02-21T03:35:20;99977.61;;;20.10;34.21
51999;BME280;73339;50.924;11.598;2024-02-21T03:37:51;99971.19;;;20.03;34.34
51999;BME280;73339;50.924;11.598;2024-02-21T03:40:21;99968.27;;;20.13;34.10
51999;BME280;73339;50.924;11.598;2024-02-21T03:42:52;99971.12;;;19.85;34.71
51999;BME280;73339;50.924;11.598;2024-02-21T03:45:22;99964.25;;;20.02;34.32
51999;BME280;73339;50.924;11.598;2024-02-21T03:47:52;99962.13;;;20.20;34.02
51999;BME280;73339;50.924;11.598;2024-02-21T03:50:23;99963.79;;;20.22;33.98
51999;BME280;73339;50.924;11.598;2024-02-21T03:52:53;99963.59;;;20.15;34.11
51999;BME280;73339;50.924;11.598;2024-02-21T03:55:24;99961.31;;;20.14;34.11
51999;BME280;73339;50.924;11.598;2024-02-21T03:57:54;99964.69;;;20.18;34.02
51999;BME280;73339;50.924;11.598;2024-02-21T04:00:25;99960.29;;;20.11;34.19
51999;BME280;73339;50.924;11.598;2024-02-21T04:02:55;99957.52;;;20.05;34.26
51999;BME280;73339;50.924;11.598;2024-02-21T04:05:26;99954.06;;;19.97;34.47
51999;BME280;73339;50.924;11.598;2024-02-21T04:07:56;99944.08;;;20.12;34.26
51999;BME280;73339;50.924;11.598;2024-02-21T04:10:26;99942.44;;;19.99;34.37
51999;BME280;73339;50.924;11.598;2024-02-21T04:12:57;99935.20;;;20.10;34.19
51999;BME280;73339;50.924;11.598;2024-02-21T04:15:27;99929.82;;;20.11;34.10
51999;BME280;73339;50.924;11.598;2024-02-21T04:17:58;99922.65;;;20.11;34.20
51999;BME280;73339;50.924;11.598;2024-02-21T04:20:29;99912.53;;;20.04;34.24
51999;BME280;73339;50.924;11.598;2024-02-21T04:22:59;99910.13;;;20.28;33.73
51999;BME280;73339;50.924;11.598;2024-02-21T04:25:29;99907.90;;;20.24;33.81
51999;BME280;73339;50.924;11.598;2024-02-21T04:28:00;99908.72;;;20.05;34.17
51999;BME280;73339;50.924;11.598;2024-02-21T04:30:30;99903.36;;;19.96;34.38
51999;BME280;73339;50.924;11.598;2024-02-21T04:33:01;99900.60;;;19.99;34.28
51999;BME280;73339;50.924;11.598;2024-02-21T04:35:31;99899.16;;;19.93;34.44
51999;BME280;73339;50.924;11.598;2024-02-21T04:38:02;99895.49;;;20.13;34.00
51999;BME280;73339;50.924;11.598;2024-02-21T04:40:32;99891.55;;;19.99;34.25
51999;BME280;73339;50.924;11.598;2024-02-21T04:43:03;99886.01;;;20.09;34.08
51999;BME280;73339;50.924;11.598;2024-02-21T04:45:33;99882.84;;;19.82;34.55
51999;BME280;73339;50.924;11.598;2024-02-21T04:48:04;99884.27;;;19.92;34.39
51999;BME280;73339;50.924;11.598;2024-02-21T04:50:34;99883.05;;;20.11;34.04
51999;BME280;73339;50.924;11.598;2024-02-21T04:53:04;99885.29;;;20.07;34.08
51999;BME280;73339;50.924;11.598;2024-02-21T04:55:35;99879.19;;;20.10;33.99
51999;BME280;73339;50.924;11.598;2024-02-21T04:58:05;99879.29;;;19.98;34.21
51999;BME280;73339;50.924;11.598;2024-02-21T05:00:36;99887.15;;;20.12;33.97
51999;BME280;73339;50.924;11.598;2024-02-21T05:03:06;99889.79;;;20.07;34.07
51999;BME280;73339;50.924;11.598;2024-02-21T05:05:36;99891.57;;;19.85;34.46
51999;BME280;73339;50.924;11.598;2024-02-21T05:08:07;99886.79;;;20.03;34.14
51999;BME280;73339;50.924;11.598;2024-02-21T05:10:37;99885.85;;;20.12;33.92
51999;BME280;73339;50.924;11.598;2024-02-21T05:13:08;99880.53;;;20.12;33.92
51999;BME280;73339;50.924;11.598;2024-02-21T05:15:38;99872.06;;;20.12;33.99
51999;BME280;73339;50.924;11.598;2024-02-21T05:18:09;99868.63;;;19.97;34.21
51999;BME280;73339;50.924;11.598;2024-02-21T05:20:39;99867.76;;;20.32;33.53
51999;BME280;73339;50.924;11.598;2024-02-21T05:23:10;99869.52;;;20.36;33.45
51999;BME280;73339;50.924;11.598;2024-02-21T05:25:40;99855.79;;;20.23;33.73
51999;BME280;73339;50.924;11.598;2024-02-21T05:28:11;99850.16;;;20.41;33.35
51999;BME280;73339;50.924;11.598;2024-02-21T05:30:41;99850.09;;;20.38;33.38
51999;BME280;73339;50.924;11.598;2024-02-21T05:33:12;99842.71;;;20.40;33.34
51999;BME280;73339;50.924;11.598;2024-02-21T05:35:42;99840.22;;;20.31;33.47
51999;BME280;73339;50.924;11.598;2024-02-21T05:38:12;99836.80;;;20.35;33.45
51999;BME280;73339;50.924;11.598;2024-02-21T05:40:44;99827.25;;;20.21;33.69
51999;BME280;73339;50.924;11.598;2024-02-21T05:43:13;99827.69;;;20.24;33.64
51999;BME280;73339;50.924;11.598;2024-02-21T05:45:44;99826.10;;;20.18;33.77
51999;BME280;73339;50.924;11.598;2024-02-21T05:48:14;99820.51;;;20.18;33.72
51999;BME280;73339;50.924;11.598;2024-02-21T05:50:45;99816.79;;;20.14;33.83
51999;BME280;73339;50.924;11.598;2024-02-21T05:53:15;99813.97;;;20.07;33.93
51999;BME280;73339;50.924;11.598;2024-02-21T05:55:46;99822.23;;;19.97;34.00
51999;BME280;73339;50.924;11.598;2024-02-21T05:58:16;99821.94;;;20.11;33.69
51999;BME280;73339;50.924;11.598;2024-02-21T06:00:47;99820.92;;;20.02;33.87
51999;BME280;73339;50.924;11.598;2024-02-21T06:03:17;99825.47;;;19.93;34.06
51999;BME280;73339;50.924;11.598;2024-02-21T06:05:49;99825.85;;;20.06;33.77
51999;BME280;73339;50.924;11.598;2024-02-21T06:08:18;99828.61;;;19.78;34.31
51999;BME280;73339;50.924;11.598;2024-02-21T06:10:48;99828.70;;;20.07;33.73
51999;BME280;73339;50.924;11.598;2024-02-21T06:13:19;99828.95;;;20.02;33.89
51999;BME280;73339;50.924;11.598;2024-02-21T06:15:49;99830.88;;;19.86;34.13
51999;BME280;73339;50.924;11.598;2024-02-21T06:18:20;99825.72;;;19.87;34.08
51999;BME280;73339;50.924;11.598;2024-02-21T06:20:50;99819.35;;;20.03;33.83
51999;BME280;73339;50.924;11.598;2024-02-21T06:23:21;99819.75;;;19.90;33.97
51999;BME280;73339;50.924;11.598;2024-02-21T06:25:51;99820.67;;;19.93;33.88
51999;BME280;73339;50.924;11.598;2024-02-21T06:28:22;99823.35;;;19.98;33.82
51999;BME280;73339;50.924;11.598;2024-02-21T06:30:52;99825.53;;;20.03;33.74
51999;BME280;73339;50.924;11.598;2024-02-21T06:33:22;99824.38;;;20.08;33.66
51999;BME280;73339;50.924;11.598;2024-02-21T06:35:53;99827.64;;;19.94;33.85
51999;BME280;73339;50.924;11.598;2024-02-21T06:38:24;99823.98;;;19.80;34.13
51999;BME280;73339;50.924;11.598;2024-02-21T06:40:54;99822.13;;;19.88;34.08
51999;BME280;73339;50.924;11.598;2024-02-21T06:43:24;99810.16;;;20.05;33.65
51999;BME280;73339;50.924;11.598;2024-02-21T06:45:55;99801.96;;;20.06;33.60
51999;BME280;73339;50.924;11.598;2024-02-21T06:48:25;99810.52;;;20.09;33.58
51999;BME280;73339;50.924;11.598;2024-02-21T06:50:56;99826.17;;;19.97;33.86
51999;BME280;73339;50.924;11.598;2024-02-21T06:53:26;99834.22;;;20.01;33.83
51999;BME280;73339;50.924;11.598;2024-02-21T06:55:57;99838.86;;;20.20;33.46
51999;BME280;73339;50.924;11.598;2024-02-21T06:58:27;99844.04;;;20.22;33.42
51999;BME280;73339;50.924;11.598;2024-02-21T07:00:58;99846.04;;;20.27;33.33
51999;BME280;73339;50.924;11.598;2024-02-21T07:03:28;99856.41;;;20.11;33.64
51999;BME280;73339;50.924;11.598;2024-02-21T07:06:00;99867.32;;;20.33;33.21
51999;BME280;73339;50.924;11.598;2024-02-21T07:08:29;99869.87;;;20.37;33.17
51999;BME280;73339;50.924;11.598;2024-02-21T07:10:59;99865.50;;;20.14;33.60
51999;BME280;73339;50.924;11.598;2024-02-21T07:13:30;99865.22;;;19.83;34.17
51999;BME280;73339;50.924;11.598;2024-02-21T07:16:00;99864.93;;;20.01;33.80
51999;BME280;73339;50.924;11.598;2024-02-21T07:18:31;99868.60;;;20.09;33.63
51999;BME280;73339;50.924;11.598;2024-02-21T07:21:01;99875.28;;;20.10;33.57
51999;BME280;73339;50.924;11.598;2024-02-21T07:23:32;99876.32;;;20.06;33.61
51999;BME280;73339;50.924;11.598;2024-02-21T07:26:03;99867.59;;;20.13;33.46
51999;BME280;73339;50.924;11.598;2024-02-21T07:28:33;99860.46;;;20.03;34.09
51999;BME280;73339;50.924;11.598;2024-02-21T07:31:03;99856.50;;;20.40;33.49
51999;BME280;73339;50.924;11.598;2024-02-21T07:33:34;99846.16;;;20.27;33.68
51999;BME280;73339;50.924;11.598;2024-02-21T07:36:06;99845.87;;;20.34;33.44
51999;BME280;73339;50.924;11.598;2024-02-21T07:38:34;99836.54;;;20.37;33.36
51999;BME280;73339;50.924;11.598;2024-02-21T07:41:04;99838.00;;;20.54;32.98
51999;BME280;73339;50.924;11.598;2024-02-21T07:43:35;99841.78;;;20.23;33.53
51999;BME280;73339;50.924;11.598;2024-02-21T07:46:05;99838.63;;;20.36;33.32
51999;BME280;73339;50.924;11.598;2024-02-21T07:48:36;99834.03;;;20.21;33.54
51999;BME280;73339;50.924;11.598;2024-02-21T07:51:06;99831.89;;;20.20;33.58
51999;BME280;73339;50.924;11.598;2024-02-21T07:53:38;99828.79;;;20.10;33.76
51999;BME280;73339;50.924;11.598;2024-02-21T07:56:07;99835.47;;;20.09;33.75
51999;BME280;73339;50.924;11.598;2024-02-21T07:58:38;99838.75;;;20.28;33.46
51999;BME280;73339;50.924;11.598;2024-02-21T08:01:08;99843.26;;;20.29;33.53
51999;BME280;73339;50.924;11.598;2024-02-21T08:03:38;99845.54;;;20.19;33.65
51999;BME280;73339;50.924;11.598;2024-02-21T08:06:12;99845.52;;;20.21;33.64
51999;BME280;73339;50.924;11.598;2024-02-21T08:08:40;99845.07;;;20.22;33.61
51999;BME280;73339;50.924;11.598;2024-02-21T08:11:10;99848.01;;;20.39;33.25
51999;BME280;73339;50.924;11.598;2024-02-21T08:13:40;99847.82;;;20.25;33.48
51999;BME280;73339;50.924;11.598;2024-02-21T08:16:11;99853.08;;;20.17;33.67
51999;BME280;73339;50.924;11.598;2024-02-21T08:18:43;99853.33;;;20.21;33.60
51999;BME280;73339;50.924;11.598;2024-02-21T08:21:12;99843.68;;;20.25;33.49
51999;BME280;73339;50.924;11.598;2024-02-21T08:23:42;99844.93;;;20.30;33.36
51999;BME280;73339;50.924;11.598;2024-02-21T08:26:13;99841.89;;;20.13;33.60
51999;BME280;73339;50.924;11.598;2024-02-21T08:28:43;99840.65;;;20.38;33.14
51999;BME280;73339;50.924;11.598;2024-02-21T08:31:19;99833.09;;;20.22;33.53
51999;BME280;73339;50.924;11.598;2024-02-21T08:33:44;99837.26;;;20.49;34.21
51999;BME280;73339;50.924;11.598;2024-02-21T08:36:17;99842.91;;;20.78;33.96
51999;BME280;73339;50.924;11.598;2024-02-21T08:38:45;99848.01;;;20.90;34.10
51999;BME280;73339;50.924;11.598;2024-02-21T08:41:15;99835.09;;;20.86;34.19
51999;BME280;73339;50.924;11.598;2024-02-21T08:43:46;99828.04;;;20.75;34.45
51999;BME280;73339;50.924;11.598;2024-02-21T08:46:16;99819.10;;;20.88;34.48
51999;BME280;73339;50.924;11.598;2024-02-21T08:48:46;99815.31;;;20.85;34.60
51999;BME280;73339;50.924;11.598;2024-02-21T08:51:17;99812.96;;;20.85;34.52
51999;BME280;73339;50.924;11.598;2024-02-21T08:53:48;99816.89;;;20.90;34.31
51999;BME280;73339;50.924;11.598;2024-02-21T08:56:18;99822.31;;;20.87;34.28
51999;BME280;73339;50.924;11.598;2024-02-21T08:58:48;99822.76;;;20.19;35.47
51999;BME280;73339;50.924;11.598;2024-02-21T09:01:18;99821.59;;;19.86;35.80
51999;BME280;73339;50.924;11.598;2024-02-21T09:03:49;99811.54;;;19.53;36.11
51999;BME280;73339;50.924;11.598;2024-02-21T09:06:19;99810.03;;;20.00;35.20
51999;BME280;73339;50.924;11.598;2024-02-21T09:08:50;99811.50;;;20.38;34.36
51999;BME280;73339;50.924;11.598;2024-02-21T09:11:20;99809.33;;;20.33;34.39
51999;BME280;73339;50.924;11.598;2024-02-21T09:13:50;99810.72;;;20.68;33.72
51999;BME280;73339;50.924;11.598;2024-02-21T09:16:20;99812.19;;;20.65;33.74
51999;BME280;73339;50.924;11.598;2024-02-21T09:18:51;99806.14;;;20.86;33.34
51999;BME280;73339;50.924;11.598;2024-02-21T09:21:21;99803.40;;;20.77;33.50
51999;BME280;73339;50.924;11.598;2024-02-21T09:23:52;99803.48;;;20.84;33.36
51999;BME280;73339;50.924;11.598;2024-02-21T09:26:22;99798.44;;;20.69;33.65
51999;BME280;73339;50.924;11.598;2024-02-21T09:28:53;99796.73;;;20.86;33.31
51999;BME280;73339;50.924;11.598;2024-02-21T09:31:23;99795.09;;;20.84;33.35
51999;BME280;73339;50.924;11.598;2024-02-21T09:33:53;99789.26;;;20.88;33.25
51999;BME280;73339;50.924;11.598;2024-02-21T09:36:24;99787.48;;;20.91;33.19
51999;BME280;73339;50.924;11.598;2024-02-21T09:38:54;99785.18;;;20.92;33.17
51999;BME280;73339;50.924;11.598;2024-02-21T09:41:27;99780.65;;;20.89;33.23
51999;BME280;73339;50.924;11.598;2024-02-21T09:43:55;99778.94;;;20.79;33.41
51999;BME280;73339;50.924;11.598;2024-02-21T09:46:33;99777.55;;;20.86;33.27
51999;BME280;73339;50.924;11.598;2024-02-21T09:49:06;99772.81;;;20.87;33.25
51999;BME280;73339;50.924;11.598;2024-02-21T09:51:28;99768.61;;;20.77;33.41
51999;BME280;73339;50.924;11.598;2024-02-21T09:53:57;99767.37;;;20.75;33.48
51999;BME280;73339;50.924;11.598;2024-02-21T09:56:27;99759.97;;;20.78;33.42
51999;BME280;73339;50.924;11.598;2024-02-21T09:58:57;99761.13;;;20.80;33.39
51999;BME280;73339;50.924;11.598;2024-02-21T10:01:28;99748.73;;;20.63;33.69
51999;BME280;73339;50.924;11.598;2024-02-21T10:03:58;99747.10;;;20.81;33.38
51999;BME280;73339;50.924;11.598;2024-02-21T10:06:29;99746.13;;;20.56;33.81
51999;BME280;73339;50.924;11.598;2024-02-21T10:08:59;99744.65;;;20.51;33.94
51999;BME280;73339;50.924;11.598;2024-02-21T10:11:29;99749.75;;;20.64;33.70
51999;BME280;73339;50.924;11.598;2024-02-21T10:14:03;99750.82;;;20.62;33.75
51999;BME280;73339;50.924;11.598;2024-02-21T10:16:30;99748.10;;;20.57;33.85
51999;BME280;73339;50.924;11.598;2024-02-21T10:19:01;99741.50;;;20.37;34.22
51999;BME280;73339;50.924;11.598;2024-02-21T10:21:31;99736.25;;;20.48;33.99
51999;BME280;73339;50.924;11.598;2024-02-21T10:24:02;99743.63;;;20.63;33.67
51999;BME280;73339;50.924;11.598;2024-02-21T10:26:32;99740.35;;;20.74;33.47
51999;BME280;73339;50.924;11.598;2024-02-21T10:29:02;99736.02;;;20.71;33.53
51999;BME280;73339;50.924;11.598;2024-02-21T10:31:33;99733.61;;;20.76;33.44
51999;BME280;73339;50.924;11.598;2024-02-21T10:34:03;99731.41;;;20.79;33.37
51999;BME280;73339;50.924;11.598;2024-02-21T10:36:34;99731.69;;;20.76;33.44
51999;BME280;73339;50.924;11.598;2024-02-21T10:39:04;99724.34;;;20.90;33.18
51999;BME280;73339;50.924;11.598;2024-02-21T10:41:36;99719.11;;;20.84;33.28
51999;BME280;73339;50.924;11.598;2024-02-21T10:44:05;99717.07;;;20.75;33.45
51999;BME280;73339;50.924;11.598;2024-02-21T10:46:36;99711.36;;;20.86;33.22
51999;BME280;73339;50.924;11.598;2024-02-21T10:49:10;99704.92;;;20.78;33.37
51999;BME280;73339;50.924;11.598;2024-02-21T10:51:40;99708.51;;;20.86;33.22
51999;BME280;73339;50.924;11.598;2024-02-21T10:54:18;99705.72;;;20.81;33.26
51999;BME280;73339;50.924;11.598;2024-02-21T10:56:38;99702.63;;;20.79;33.30
51999;BME280;73339;50.924;11.598;2024-02-21T10:59:08;99694.62;;;20.85;33.12
51999;BME280;73339;50.924;11.598;2024-02-21T11:01:38;99693.40;;;20.89;33.07
51999;BME280;73339;50.924;11.598;2024-02-21T11:04:10;99695.53;;;20.81;33.23
51999;BME280;73339;50.924;11.598;2024-02-21T11:06:40;99688.80;;;20.79;33.27
51999;BME280;73339;50.924;11.598;2024-02-21T11:09:10;99684.88;;;20.79;33.25
51999;BME280;73339;50.924;11.598;2024-02-21T11:11:42;99676.23;;;20.78;33.26
51999;BME280;73339;50.924;11.598;2024-02-21T11:14:17;99667.69;;;20.76;33.32
51999;BME280;73339;50.924;11.598;2024-02-21T11:16:41;99663.69;;;20.87;33.11
51999;BME280;73339;50.924;11.598;2024-02-21T11:19:20;99660.69;;;20.94;32.98
51999;BME280;73339;50.924;11.598;2024-02-21T11:21:42;99656.37;;;20.81;33.22
51999;BME280;73339;50.924;11.598;2024-02-21T11:24:12;99659.20;;;20.81;33.20
51999;BME280;73339;50.924;11.598;2024-02-21T11:26:43;99651.36;;;20.81;33.23
51999;BME280;73339;50.924;11.598;2024-02-21T11:29:22;99642.74;;;20.69;33.45
51999;BME280;73339;50.924;11.598;2024-02-21T11:31:44;99636.25;;;20.79;33.22
51999;BME280;73339;50.924;11.598;2024-02-21T11:34:17;99623.29;;;20.82;33.15
51999;BME280;73339;50.924;11.598;2024-02-21T11:36:48;99621.20;;;20.75;33.32
51999;BME280;73339;50.924;11.598;2024-02-21T11:39:20;99615.14;;;20.70;33.38
51999;BME280;73339;50.924;11.598;2024-02-21T11:41:45;99606.30;;;20.74;33.26
51999;BME280;73339;50.924;11.598;2024-02-21T11:44:15;99603.66;;;20.67;33.38
51999;BME280;73339;50.924;11.598;2024-02-21T11:46:46;99601.21;;;20.70;33.22
51999;BME280;73339;50.924;11.598;2024-02-21T11:49:16;99596.67;;;20.77;33.06
51999;BME280;73339;50.924;11.598;2024-02-21T11:51:47;99592.84;;;20.62;33.37
51999;BME280;73339;50.924;11.598;2024-02-21T11:54:17;99589.04;;;20.72;33.17
51999;BME280;73339;50.924;11.598;2024-02-21T11:56:47;99587.52;;;20.75;33.10
51999;BME280;73339;50.924;11.598;2024-02-21T11:59:18;99584.05;;;20.76;33.04
51999;BME280;73339;50.924;11.598;2024-02-21T12:01:49;99582.30;;;20.76;33.06
51999;BME280;73339;50.924;11.598;2024-02-21T12:04:20;99577.29;;;20.41;34.04
51999;BME280;73339;50.924;11.598;2024-02-21T12:06:49;99571.71;;;20.03;34.90
51999;BME280;73339;50.924;11.598;2024-02-21T12:09:20;99570.27;;;20.11;34.97
51999;BME280;73339;50.924;11.598;2024-02-21T12:11:58;99570.68;;;20.65;34.16
51999;BME280;73339;50.924;11.598;2024-02-21T12:14:21;99564.00;;;21.00;33.54
51999;BME280;73339;50.924;11.598;2024-02-21T12:16:51;99560.87;;;21.13;33.44
51999;BME280;73339;50.924;11.598;2024-02-21T12:19:22;99550.88;;;21.11;33.50
51999;BME280;73339;50.924;11.598;2024-02-21T12:21:54;99541.32;;;21.21;33.41
51999;BME280;73339;50.924;11.598;2024-02-21T12:24:23;99538.68;;;21.20;33.41
51999;BME280;73339;50.924;11.598;2024-02-21T12:26:53;99532.51;;;21.24;33.42
51999;BME280;73339;50.924;11.598;2024-02-21T12:29:24;99528.10;;;21.27;33.38
51999;BME280;73339;50.924;11.598;2024-02-21T12:31:54;99518.79;;;21.28;33.27
51999;BME280;73339;50.924;11.598;2024-02-21T12:34:24;99505.26;;;21.29;33.28
51999;BME280;73339;50.924;11.598;2024-02-21T12:36:55;99501.21;;;21.31;33.26
51999;BME280;73339;50.924;11.598;2024-02-21T12:39:25;99491.13;;;21.27;33.55
51999;BME280;73339;50.924;11.598;2024-02-21T12:41:55;99481.90;;;21.07;33.82
51999;BME280;73339;50.924;11.598;2024-02-21T12:44:26;99478.40;;;21.26;33.87
51999;BME280;73339;50.924;11.598;2024-02-21T12:46:56;99467.39;;;21.40;33.93
51999;BME280;73339;50.924;11.598;2024-02-21T12:49:27;99461.08;;;21.54;33.82
51999;BME280;73339;50.924;11.598;2024-02-21T12:51:57;99460.16;;;21.53;34.46
51999;BME280;73339;50.924;11.598;2024-02-21T12:54:27;99465.02;;;20.85;35.12
51999;BME280;73339;50.924;11.598;2024-02-21T12:56:58;99460.48;;;20.44;35.73
51999;BME280;73339;50.924;11.598;2024-02-21T12:59:28;99458.17;;;20.61;35.06
51999;BME280;73339;50.924;11.598;2024-02-21T13:01:59;99446.94;;;20.90;34.28
51999;BME280;73339;50.924;11.598;2024-02-21T13:04:29;99444.36;;;21.14;33.73